Time;durP1;ratioP1;P1;durP2;ratioP2;P2;SDS_P1;SDS_P2;PMS_P1;PMS_P2;Temp;Humidity;BMP_temperature;BMP_pressure;BME280_temperature;BME280_humidity;BME280_pressure;Samples;Min_cycle;Max_cycle;Signal;HPM_P1;HPM_P2
2021/12/01 00:01:04;;;;;;;9.35;2.72;;;8.10;99.90;;;;;;4998620;28;20132;-81
2021/12/01 00:03:30;;;;;;;3.13;2.65;;;8.20;99.90;;;;;;5016242;28;20410;-82
2021/12/01 00:05:56;;;;;;;4.57;2.80;;;8.20;99.90;;;;;;5019205;28;20064;-82
2021/12/01 00:08:22;;;;;;;5.72;2.45;;;8.30;99.90;;;;;;5031595;28;20045;-82
2021/12/01 00:10:48;;;;;;;2.95;1.65;;;8.40;99.90;;;;;;5017256;28;20121;-81
2021/12/01 00:13:16;;;;;;;4.63;3.38;;;8.40;99.90;;;;;;5044406;28;20037;-81
2021/12/01 00:15:44;;;;;;;4.18;2.97;;;8.50;99.90;;;;;;5027571;28;20049;-81
2021/12/01 00:18:10;;;;;;;5.50;2.25;;;8.50;99.90;;;;;;5015825;28;20033;-80
2021/12/01 00:20:37;;;;;;;2.85;2.33;;;8.50;99.90;;;;;;5026176;28;20052;-80
2021/12/01 00:23:03;;;;;;;4.07;2.58;;;8.50;99.90;;;;;;5033557;28;20127;-79
2021/12/01 00:25:32;;;;;;;4.70;3.22;;;8.60;99.90;;;;;;5042116;28;20109;-79
2021/12/01 00:27:58;;;;;;;9.00;4.70;;;8.70;99.90;;;;;;5035603;28;20402;-79
2021/12/01 00:30:25;;;;;;;5.72;3.92;;;8.70;99.90;;;;;;5029308;28;20048;-79
2021/12/01 00:32:54;;;;;;;5.45;3.60;;;8.80;99.90;;;;;;5026315;28;20062;-79
2021/12/01 00:35:21;;;;;;;6.38;3.03;;;8.80;99.90;;;;;;5025829;28;20056;-79
2021/12/01 00:37:47;;;;;;;4.95;3.75;;;8.90;99.90;;;;;;5025598;28;20037;-79
2021/12/01 00:40:14;;;;;;;9.15;4.40;;;8.90;99.90;;;;;;5000077;28;20048;-79
2021/12/01 00:42:40;;;;;;;5.82;3.55;;;9.00;99.90;;;;;;5031083;28;20037;-79
2021/12/01 00:45:12;;;;;;;5.93;4.35;;;9.00;99.90;;;;;;5020161;28;20038;-78
2021/12/01 00:47:50;;;;;;;10.25;4.18;;;9.10;99.90;;;;;;5011219;28;20052;-78
2021/12/01 00:50:18;;;;;;;12.85;5.45;;;9.10;99.90;;;;;;5032551;28;20088;-79
2021/12/01 00:52:44;;;;;;;10.98;6.72;;;9.20;99.90;;;;;;5032944;28;20045;-78
2021/12/01 00:55:10;;;;;;;14.00;3.20;;;9.10;99.90;;;;;;5024969;28;20482;-78
2021/12/01 00:57:37;;;;;;;12.77;6.03;;;9.20;99.90;;;;;;5026558;28;20034;-78
2021/12/01 01:00:05;;;;;;;6.43;4.35;;;9.10;99.90;;;;;;5021683;28;20129;-79
2021/12/01 01:02:31;;;;;;;5.22;3.47;;;9.20;99.90;;;;;;5028286;28;20619;-78
2021/12/01 01:04:56;;;;;;;5.53;3.10;;;9.40;99.90;;;;;;5040937;28;20049;-78
2021/12/01 01:07:22;;;;;;;7.85;4.57;;;9.40;99.90;;;;;;5032519;28;20064;-78
2021/12/01 01:09:48;;;;;;;9.35;4.32;;;9.20;99.90;;;;;;5022190;28;20048;-77
2021/12/01 01:17:46;;;;;;;5.95;4.63;;;9.50;99.90;;;;;;5025202;28;20053;-79
2021/12/01 01:20:13;;;;;;;10.75;4.43;;;9.30;99.90;;;;;;5032216;28;20083;-77
2021/12/01 01:22:39;;;;;;;7.03;5.32;;;9.30;99.90;;;;;;5043350;28;20049;-79
2021/12/01 01:25:08;;;;;;;7.78;5.10;;;9.30;99.90;;;;;;5031599;28;20129;-79
2021/12/01 01:27:34;;;;;;;6.30;4.68;;;9.30;99.90;;;;;;5031650;28;20053;-79
2021/12/01 01:29:59;;;;;;;;;;;9.30;99.90;;;;;;5038236;28;20040;-79
2021/12/01 01:32:25;;;;;;;7.07;4.70;;;9.30;99.90;;;;;;5035530;28;19975;-77
2021/12/01 01:34:51;;;;;;;7.55;3.97;;;9.40;99.90;;;;;;5031833;28;20149;-77
2021/12/01 01:37:17;;;;;;;6.68;4.22;;;9.40;99.90;;;;;;5029879;28;20120;-78
2021/12/01 01:39:43;;;;;;;5.28;3.63;;;9.30;99.90;;;;;;5041579;28;20394;-78
2021/12/01 01:42:08;;;;;;;12.43;4.50;;;9.40;99.90;;;;;;5041442;28;20437;-79
2021/12/01 01:44:34;;;;;;;8.25;4.88;;;9.40;99.90;;;;;;5047190;28;20042;-78
2021/12/01 01:47:00;;;;;;;13.70;4.53;;;9.40;99.90;;;;;;5020799;28;20049;-78
2021/12/01 01:49:44;;;;;;;3.22;2.40;;;9.50;99.90;;;;;;5043790;28;20091;-78
2021/12/01 01:52:10;;;;;;;7.72;3.70;;;9.40;99.90;;;;;;5023734;28;20484;-79
2021/12/01 01:54:36;;;;;;;7.43;4.78;;;9.50;99.90;;;;;;5036037;28;20091;-78
2021/12/01 01:57:02;;;;;;;;;;;9.50;99.90;;;;;;5026152;28;20046;-78
2021/12/01 01:59:27;;;;;;;11.18;3.75;;;9.50;99.90;;;;;;5029982;28;19924;-78
2021/12/01 02:01:56;;;;;;;5.95;3.30;;;9.50;99.90;;;;;;5021592;28;20049;-79
2021/12/01 02:04:22;;;;;;;5.00;3.25;;;9.50;99.90;;;;;;5016918;28;20054;-79
2021/12/01 02:06:49;;;;;;;3.40;1.95;;;9.50;99.90;;;;;;5017450;28;20110;-79
2021/12/01 02:09:18;;;;;;;3.75;2.67;;;9.50;99.90;;;;;;5033525;28;20130;-78
2021/12/01 02:11:55;;;;;;;2.95;2.15;;;9.50;99.90;;;;;;5046678;28;20147;-78
2021/12/01 02:14:22;;;;;;;7.35;2.00;;;9.60;99.90;;;;;;5021679;28;20041;-78
2021/12/01 02:16:49;;;;;;;2.67;1.83;;;9.60;99.90;;;;;;5039948;28;20562;-78
2021/12/01 02:19:15;;;;;;;2.03;1.92;;;9.60;99.90;;;;;;5028431;28;20038;-76
2021/12/01 02:21:41;;;;;;;;;;;9.60;99.90;;;;;;5031943;28;20052;-77
2021/12/01 02:24:11;;;;;;;1.90;1.35;;;9.60;99.90;;;;;;5031160;28;19917;-77
2021/12/01 02:26:39;;;;;;;2.05;1.73;;;9.70;99.90;;;;;;5043601;28;20113;-78
2021/12/01 02:29:09;;;;;;;2.08;1.52;;;9.70;99.90;;;;;;5030421;28;20049;-78
2021/12/01 02:31:36;;;;;;;4.10;1.65;;;9.60;99.90;;;;;;5036449;28;20079;-77
2021/12/01 02:34:05;;;;;;;2.72;1.58;;;9.70;99.90;;;;;;5035716;28;20107;-77
2021/12/01 02:36:31;;;;;;;1.92;1.65;;;9.70;99.90;;;;;;5030662;28;20030;-76
2021/12/01 02:38:57;;;;;;;1.35;1.20;;;9.60;99.90;;;;;;5001111;28;20033;-77
2021/12/01 02:41:28;;;;;;;1.17;0.93;;;9.60;99.90;;;;;;5019393;28;20552;-76
2021/12/01 02:43:55;;;;;;;0.95;0.90;;;9.50;99.90;;;;;;5038696;28;20041;-76
2021/12/01 02:46:21;;;;;;;;;;;9.50;99.90;;;;;;5020921;28;20055;-76
2021/12/01 02:48:46;;;;;;;1.00;0.85;;;9.50;99.90;;;;;;5037234;28;19999;-77
2021/12/01 02:51:12;;;;;;;1.50;1.10;;;9.40;99.90;;;;;;5023867;28;20141;-77
2021/12/01 02:53:39;;;;;;;;;;;9.50;99.90;;;;;;5032782;28;20387;-78
2021/12/01 02:56:06;;;;;;;1.10;1.00;;;9.60;99.90;;;;;;5028055;28;19917;-77
2021/12/01 02:58:38;;;;;;;2.28;1.70;;;9.40;99.90;;;;;;5026407;28;20288;-77
2021/12/01 03:01:07;;;;;;;1.52;1.27;;;9.50;99.90;;;;;;5014058;28;20548;-76
2021/12/01 03:03:33;;;;;;;2.05;1.42;;;9.50;99.90;;;;;;5037114;28;20060;-77
2021/12/01 03:05:59;;;;;;;;;;;9.60;99.90;;;;;;5029617;28;20653;-78
2021/12/01 03:08:25;;;;;;;1.25;1.15;;;9.60;99.90;;;;;;5043947;28;19924;-77
2021/12/01 03:10:53;;;;;;;1.40;1.20;;;9.60;99.90;;;;;;5038369;28;20053;-76
2021/12/01 03:13:21;;;;;;;1.17;1.08;;;9.50;99.90;;;;;;5013729;28;20045;-76
2021/12/01 03:15:47;;;;;;;0.80;0.80;;;9.70;99.90;;;;;;5045216;28;20117;-76
2021/12/01 03:18:14;;;;;;;;;;;9.70;99.90;;;;;;5030191;28;20068;-77
2021/12/01 03:20:40;;;;;;;1.20;0.82;;;9.60;99.90;;;;;;5029609;28;19928;-77
2021/12/01 03:23:07;;;;;;;1.10;0.93;;;9.60;99.90;;;;;;5029208;28;20186;-78
2021/12/01 03:25:33;;;;;;;9.23;1.17;;;9.70;99.90;;;;;;5029900;28;20044;-78
2021/12/01 03:28:00;;;;;;;;;;;9.70;99.90;;;;;;5046115;28;20449;-77
2021/12/01 03:30:25;;;;;;;2.08;1.00;;;9.70;99.90;;;;;;5012756;28;19964;-77
2021/12/01 03:32:51;;;;;;;0.68;0.68;;;9.70;99.90;;;;;;5016476;28;20085;-77
2021/12/01 03:35:18;;;;;;;0.90;0.85;;;9.60;99.90;;;;;;5029771;28;20049;-77
2021/12/01 03:37:45;;;;;;;2.05;1.15;;;9.60;99.90;;;;;;5037107;28;20398;-78
2021/12/01 03:40:12;;;;;;;3.38;1.23;;;9.70;99.90;;;;;;5027136;28;20041;-79
2021/12/01 03:42:38;;;;;;;0.95;0.88;;;9.70;99.90;;;;;;5032262;28;20367;-77
2021/12/01 03:45:06;;;;;;;1.70;1.23;;;9.60;99.90;;;;;;5043635;28;20100;-77
2021/12/01 03:47:33;;;;;;;1.08;0.98;;;9.70;99.90;;;;;;5031118;28;20040;-77
2021/12/01 03:49:59;;;;;;;3.28;1.23;;;9.60;99.90;;;;;;5018436;28;20034;-77
2021/12/01 03:52:25;;;;;;;1.42;1.33;;;9.60;99.90;;;;;;5037889;28;20060;-78
2021/12/01 03:54:52;;;;;;;2.88;1.17;;;9.60;99.90;;;;;;5032866;28;20061;-77
2021/12/01 03:57:18;;;;;;;5.53;1.25;;;9.60;99.90;;;;;;5032056;28;20041;-77
2021/12/01 03:59:44;;;;;;;;;;;9.50;99.90;;;;;;5031468;28;20103;-78
2021/12/01 04:02:10;;;;;;;3.10;1.27;;;9.70;99.90;;;;;;5038094;28;19917;-79
2021/12/01 04:04:36;;;;;;;;;;;9.60;99.90;;;;;;5029800;28;20493;-77
2021/12/01 04:07:02;;;;;;;2.03;1.45;;;9.60;99.90;;;;;;5022455;28;19921;-77
2021/12/01 04:09:28;;;;;;;1.40;1.27;;;9.50;99.90;;;;;;5022642;28;20344;-77
2021/12/01 04:11:54;;;;;;;1.10;1.00;;;9.50;99.90;;;;;;5030486;28;20048;-77
2021/12/01 04:14:20;;;;;;;6.00;1.73;;;9.50;99.90;;;;;;5019615;28;20042;-77
2021/12/01 04:16:46;;;;;;;5.57;1.45;;;9.50;99.90;;;;;;5023757;28;20439;-77
2021/12/01 04:19:12;;;;;;;5.35;1.20;;;9.50;99.90;;;;;;5013135;28;20044;-77
2021/12/01 04:21:38;;;;;;;1.85;1.30;;;9.40;99.90;;;;;;5031476;28;20107;-78
2021/12/01 04:24:04;;;;;;;1.38;1.25;;;9.40;99.90;;;;;;4998376;28;20446;-77
2021/12/01 04:26:32;;;;;;;3.58;2.17;;;9.40;99.90;;;;;;5023616;28;20041;-77
2021/12/01 04:29:00;;;;;;;1.75;1.35;;;9.50;99.90;;;;;;5018850;28;20087;-77
2021/12/01 04:31:28;;;;;;;0.98;0.98;;;9.40;99.90;;;;;;5008267;28;20041;-77
2021/12/01 04:33:56;;;;;;;1.45;1.35;;;9.40;99.90;;;;;;5009247;28;20057;-78
2021/12/01 04:36:26;;;;;;;1.25;1.15;;;9.40;99.90;;;;;;5038618;28;20146;-78
2021/12/01 04:38:52;;;;;;;0.50;0.50;;;9.40;99.90;;;;;;5016751;28;20033;-79
2021/12/01 04:41:18;;;;;;;;;;;9.30;99.90;;;;;;5021579;28;20475;-78
2021/12/01 04:43:46;;;;;;;4.68;1.30;;;9.40;99.90;;;;;;5029099;28;19984;-79
2021/12/01 04:46:16;;;;;;;5.13;1.10;;;9.30;99.90;;;;;;5018252;28;20042;-78
2021/12/01 04:48:42;;;;;;;2.20;1.25;;;9.30;99.90;;;;;;5029367;28;20406;-78
2021/12/01 04:51:08;;;;;;;1.15;1.00;;;9.40;99.90;;;;;;5023021;28;20046;-77
2021/12/01 04:53:34;;;;;;;1.17;1.08;;;9.30;99.90;;;;;;5027896;28;20165;-78
2021/12/01 04:56:00;;;;;;;1.90;1.35;;;9.30;99.90;;;;;;5031780;28;20044;-78
2021/12/01 04:58:25;;;;;;;2.58;0.70;;;9.30;99.90;;;;;;5039183;28;20483;-79
2021/12/01 05:00:51;;;;;;;1.17;1.00;;;9.30;99.90;;;;;;5036141;28;20063;-79
2021/12/01 05:03:17;;;;;;;1.83;1.10;;;9.30;99.90;;;;;;5019254;28;20038;-79
2021/12/01 05:05:43;;;;;;;1.83;1.15;;;9.30;99.90;;;;;;5026206;28;20067;-79
2021/12/01 05:08:08;;;;;;;1.23;1.08;;;9.30;99.90;;;;;;5033738;28;20043;-78
2021/12/01 05:10:34;;;;;;;1.02;0.95;;;9.30;99.90;;;;;;5024814;28;20068;-78
2021/12/01 05:12:59;;;;;;;1.20;1.10;;;9.20;99.90;;;;;;5034320;28;20055;-79
2021/12/01 05:15:25;;;;;;;1.50;0.98;;;9.20;99.90;;;;;;5038182;28;20041;-79
2021/12/01 05:17:51;;;;;;;1.15;1.05;;;9.20;99.90;;;;;;5009444;28;20042;-79
2021/12/01 05:20:16;;;;;;;1.20;0.98;;;9.20;99.90;;;;;;5018464;28;20099;-79
2021/12/01 05:22:44;;;;;;;0.80;0.80;;;9.20;99.90;;;;;;5033356;28;20037;-79
2021/12/01 05:25:10;;;;;;;2.45;1.02;;;9.10;99.90;;;;;;5025825;28;20041;-80
2021/12/01 05:27:39;;;;;;;1.50;1.23;;;9.10;99.90;;;;;;5028413;28;20037;-79
2021/12/01 05:30:06;;;;;;;1.00;0.90;;;9.20;99.90;;;;;;5025806;28;20096;-79
2021/12/01 05:32:32;;;;;;;0.68;0.68;;;9.10;99.90;;;;;;5021837;28;20049;-78
2021/12/01 05:34:58;;;;;;;;;;;9.20;99.90;;;;;;5010471;28;20494;-79
2021/12/01 05:37:24;;;;;;;0.68;0.68;;;9.10;99.90;;;;;;5028906;28;20278;-79
2021/12/01 05:39:50;;;;;;;0.60;0.60;;;9.10;99.90;;;;;;5004152;28;20029;-79
2021/12/01 05:42:19;;;;;;;0.70;0.70;;;9.20;99.90;;;;;;5013202;28;20486;-79
2021/12/01 05:44:45;;;;;;;0.68;0.68;;;9.10;99.90;;;;;;5017222;28;20049;-79
2021/12/01 05:47:11;;;;;;;;;;;9.10;99.90;;;;;;5001686;28;20043;-79
2021/12/01 05:49:44;;;;;;;0.77;0.77;;;9.00;99.90;;;;;;4998059;28;19917;-79
2021/12/01 05:52:16;;;;;;;1.45;1.05;;;9.00;99.90;;;;;;5032446;28;20041;-79
2021/12/01 05:54:43;;;;;;;0.60;0.60;;;9.00;99.90;;;;;;5015398;28;20057;-79
2021/12/01 05:57:09;;;;;;;0.70;0.70;;;8.90;99.90;;;;;;5000731;28;20048;-79
2021/12/01 05:59:35;;;;;;;1.17;1.10;;;8.90;99.90;;;;;;5012981;28;20037;-79
2021/12/01 06:02:01;;;;;;;2.45;1.73;;;8.90;99.90;;;;;;5015674;28;20111;-79
2021/12/01 06:04:27;;;;;;;1.13;0.95;;;8.90;99.90;;;;;;5021253;28;20084;-79
2021/12/01 06:06:54;;;;;;;2.03;1.40;;;9.00;99.90;;;;;;5016522;28;20037;-78
2021/12/01 06:09:20;;;;;;;1.52;1.20;;;8.90;99.90;;;;;;5008721;28;20037;-78
2021/12/01 06:11:47;;;;;;;2.97;1.25;;;8.90;99.90;;;;;;5027549;28;20120;-78
2021/12/01 06:14:14;;;;;;;1.73;1.17;;;8.90;99.90;;;;;;5014272;28;20451;-78
2021/12/01 06:16:42;;;;;;;1.60;1.50;;;8.90;99.90;;;;;;4995884;28;20373;-78
2021/12/01 06:19:07;;;;;;;1.27;0.80;;;8.90;99.90;;;;;;5007907;28;20521;-78
2021/12/01 06:21:33;;;;;;;1.35;0.98;;;8.90;99.90;;;;;;5015614;28;20280;-78
2021/12/01 06:23:59;;;;;;;0.82;0.82;;;8.80;99.90;;;;;;5016583;28;20058;-79
2021/12/01 06:26:24;;;;;;;0.73;0.73;;;8.80;99.90;;;;;;5001995;28;20124;-79
2021/12/01 06:28:51;;;;;;;1.58;1.40;;;8.80;99.90;;;;;;5014030;28;20041;-79
2021/12/01 06:31:17;;;;;;;1.45;1.33;;;8.70;99.90;;;;;;5013343;28;20038;-79
2021/12/01 06:33:43;;;;;;;;;;;8.70;99.90;;;;;;5020405;28;20057;-80
2021/12/01 06:36:09;;;;;;;1.80;1.23;;;8.70;99.90;;;;;;5030618;28;19975;-80
2021/12/01 06:38:35;;;;;;;1.08;1.08;;;8.70;99.90;;;;;;5037824;28;20388;-79
2021/12/01 06:41:01;;;;;;;2.25;1.20;;;8.70;99.90;;;;;;5030355;28;20041;-79
2021/12/01 06:43:27;;;;;;;;;;;8.90;99.90;;;;;;5029389;28;20066;-78
2021/12/01 06:45:53;;;;;;;2.75;1.75;;;8.70;99.90;;;;;;5031452;28;19921;-78
2021/12/01 06:48:19;;;;;;;1.42;1.33;;;8.70;99.90;;;;;;5035457;28;20487;-80
2021/12/01 06:50:45;;;;;;;0.90;0.90;;;8.70;99.90;;;;;;5030550;28;20053;-79
2021/12/01 06:53:10;;;;;;;3.83;1.15;;;8.70;99.90;;;;;;5016507;28;20044;-80
2021/12/01 06:55:36;;;;;;;0.70;0.70;;;8.60;99.90;;;;;;5003936;28;20038;-79
2021/12/01 06:58:02;;;;;;;0.98;0.98;;;8.70;99.90;;;;;;5051920;28;20091;-79
2021/12/01 07:00:30;;;;;;;1.10;0.80;;;8.60;99.90;;;;;;5022176;28;20037;-79
2021/12/01 07:02:56;;;;;;;1.30;1.13;;;8.60;99.90;;;;;;5047662;28;20175;-79
2021/12/01 07:05:21;;;;;;;0.90;0.90;;;8.40;99.90;;;;;;5023641;28;20120;-79
2021/12/01 07:07:47;;;;;;;1.38;1.05;;;8.50;99.90;;;;;;5001423;28;20391;-79
2021/12/01 07:10:15;;;;;;;1.00;1.00;;;8.50;99.90;;;;;;5026427;28;20045;-79
2021/12/01 07:12:42;;;;;;;1.17;1.05;;;8.50;99.90;;;;;;5002097;28;20038;-80
2021/12/01 07:15:09;;;;;;;5.60;1.10;;;8.50;99.90;;;;;;5015678;28;20139;-79
2021/12/01 07:17:35;;;;;;;2.65;1.38;;;8.50;99.90;;;;;;5001843;28;20072;-78
2021/12/01 07:20:01;;;;;;;1.13;1.08;;;8.50;99.90;;;;;;5032879;28;20138;-80
2021/12/01 07:22:26;;;;;;;1.70;1.52;;;8.50;99.90;;;;;;5009816;28;20046;-80
2021/12/01 07:24:52;;;;;;;1.48;0.98;;;8.50;99.90;;;;;;5005173;28;20691;-79
2021/12/01 07:27:18;;;;;;;2.33;1.40;;;8.50;99.90;;;;;;5023435;28;20100;-79
2021/12/01 07:29:45;;;;;;;2.42;1.42;;;8.50;99.90;;;;;;5010913;28;20037;-80
2021/12/01 07:32:12;;;;;;;2.20;1.30;;;8.50;99.90;;;;;;5037283;28;20502;-79
2021/12/01 07:34:42;;;;;;;1.20;1.13;;;8.70;99.90;;;;;;5004671;28;20387;-79
2021/12/01 07:37:16;;;;;;;2.75;1.52;;;8.50;99.90;;;;;;5020574;28;20057;-80
2021/12/01 07:39:42;;;;;;;1.30;1.20;;;8.50;99.90;;;;;;5020202;28;20045;-79
2021/12/01 07:42:09;;;;;;;1.88;1.58;;;8.50;99.90;;;;;;5026854;28;20423;-79
2021/12/01 07:44:35;;;;;;;2.35;1.65;;;8.50;99.90;;;;;;5022932;28;20469;-79
2021/12/01 07:47:01;;;;;;;2.40;1.40;;;8.50;99.90;;;;;;5010007;28;20049;-80
2021/12/01 07:49:27;;;;;;;3.17;2.03;;;8.50;99.90;;;;;;5025745;28;20041;-79
2021/12/01 07:51:53;;;;;;;1.67;1.58;;;8.60;99.90;;;;;;5023240;28;20034;-79
2021/12/01 07:54:18;;;;;;;3.22;1.63;;;8.50;99.90;;;;;;5020713;28;20045;-79
2021/12/01 07:56:45;;;;;;;3.47;2.38;;;8.60;99.90;;;;;;4994976;28;20046;-79
2021/12/01 07:59:14;;;;;;;3.42;2.53;;;8.60;99.90;;;;;;5025687;28;20399;-79
2021/12/01 08:01:41;;;;;;;0.85;0.85;;;8.60;99.90;;;;;;5007407;28;20132;-78
2021/12/01 08:04:07;;;;;;;4.68;2.22;;;8.60;99.90;;;;;;4995680;28;20384;-79
2021/12/01 08:06:33;;;;;;;2.50;1.75;;;8.60;99.90;;;;;;5025802;28;20084;-81
2021/12/01 08:09:00;;;;;;;3.97;1.92;;;8.70;99.90;;;;;;5023520;28;20056;-79
2021/12/01 08:11:29;;;;;;;1.33;1.20;;;8.60;99.90;;;;;;5011224;28;20056;-79
2021/12/01 08:13:55;;;;;;;5.25;1.48;;;8.60;99.90;;;;;;5010116;28;20106;-80
2021/12/01 08:16:21;;;;;;;1.35;1.25;;;8.60;99.90;;;;;;5026662;28;20122;-80
2021/12/01 08:19:05;;;;;;;;;;;8.70;99.90;;;;;;5015693;28;20049;-79
2021/12/01 08:21:32;;;;;;;2.80;1.75;;;8.60;99.90;;;;;;5021336;28;19924;-80
2021/12/01 08:23:58;;;;;;;1.60;1.48;;;8.70;99.90;;;;;;4986286;28;20091;-80
2021/12/01 08:26:24;;;;;;;2.17;1.75;;;8.60;99.90;;;;;;5004767;28;20045;-80
2021/12/01 08:28:50;;;;;;;1.98;1.27;;;8.60;99.90;;;;;;5026259;28;20111;-80
2021/12/01 08:31:19;;;;;;;2.33;2.08;;;8.60;99.90;;;;;;5004666;28;20042;-80
2021/12/01 08:33:46;;;;;;;6.68;1.38;;;8.60;99.90;;;;;;5017875;28;20041;-81
2021/12/01 08:36:12;;;;;;;2.45;2.05;;;8.60;99.90;;;;;;5022306;28;20054;-82
2021/12/01 08:38:39;;;;;;;;;;;8.60;99.90;;;;;;5029143;28;20164;-81
2021/12/01 08:41:06;;;;;;;1.95;1.73;;;8.60;99.90;;;;;;5005781;28;19920;-80
2021/12/01 08:43:33;;;;;;;7.85;2.13;;;8.60;99.90;;;;;;5021371;28;20198;-81
2021/12/01 08:46:00;;;;;;;6.47;1.40;;;8.60;99.90;;;;;;5035779;28;20442;-81
2021/12/01 08:48:26;;;;;;;3.22;1.48;;;8.60;99.90;;;;;;5008654;28;20128;-80
2021/12/01 08:50:52;;;;;;;2.58;1.45;;;8.50;99.90;;;;;;5031291;28;20042;-81
2021/12/01 08:53:18;;;;;;;2.22;1.42;;;8.40;99.90;;;;;;5029756;28;20037;-81
2021/12/01 08:55:45;;;;;;;0.60;0.60;;;8.40;99.90;;;;;;5013714;28;20038;-81
2021/12/01 08:58:14;;;;;;;2.45;1.05;;;8.50;99.90;;;;;;5009871;28;20049;-80
2021/12/01 09:00:44;;;;;;;3.00;1.40;;;8.30;99.90;;;;;;5018744;28;20046;-79
2021/12/01 09:03:13;;;;;;;1.77;1.17;;;8.30;99.90;;;;;;5037184;28;20110;-79
2021/12/01 09:05:40;;;;;;;0.98;0.95;;;8.20;99.90;;;;;;5011547;28;20080;-79
2021/12/01 09:08:07;;;;;;;2.33;1.02;;;8.20;99.90;;;;;;5036380;28;20045;-79
2021/12/01 09:10:33;;;;;;;1.60;1.20;;;8.20;99.90;;;;;;5030797;28;20414;-78
2021/12/01 09:12:59;;;;;;;;;;;8.20;99.90;;;;;;5033390;28;20056;-78
2021/12/01 09:15:25;;;;;;;2.30;1.23;;;8.20;99.90;;;;;;5011091;28;20004;-79
2021/12/01 09:17:51;;;;;;;9.40;1.05;;;8.20;99.90;;;;;;5009550;28;20046;-78
2021/12/01 09:20:17;;;;;;;1.90;1.02;;;8.10;99.90;;;;;;5041828;28;20131;-79
2021/12/01 09:22:43;;;;;;;0.63;0.63;;;8.20;99.90;;;;;;5036428;28;20141;-79
2021/12/01 09:25:09;;;;;;;2.47;0.80;;;8.10;99.90;;;;;;4995416;28;20476;-79
2021/12/01 09:27:34;;;;;;;2.08;1.13;;;7.90;99.90;;;;;;5030344;28;20041;-78
2021/12/01 09:30:00;;;;;;;1.23;1.13;;;8.10;99.90;;;;;;5032383;28;20053;-79
2021/12/01 09:32:26;;;;;;;0.60;0.60;;;8.10;99.90;;;;;;5033285;28;20123;-81
2021/12/01 09:34:52;;;;;;;1.05;0.80;;;8.10;99.90;;;;;;5026325;28;20127;-79
2021/12/01 09:37:18;;;;;;;3.40;1.30;;;8.10;99.90;;;;;;5007198;28;20384;-79
2021/12/01 09:39:44;;;;;;;2.47;0.88;;;8.10;99.90;;;;;;5020311;28;20056;-78
2021/12/01 09:42:11;;;;;;;0.70;0.70;;;8.10;99.90;;;;;;5028065;28;20507;-78
2021/12/01 09:44:37;;;;;;;0.80;0.80;;;8.10;99.90;;;;;;5037672;28;20111;-79
2021/12/01 09:47:04;;;;;;;1.80;0.70;;;8.10;99.90;;;;;;5031816;28;20053;-78
2021/12/01 09:49:30;;;;;;;1.58;1.00;;;8.10;99.90;;;;;;5036050;28;20080;-78
2021/12/01 09:51:56;;;;;;;0.60;0.60;;;8.10;99.90;;;;;;5029326;28;20490;-78
2021/12/01 09:54:22;;;;;;;2.30;1.23;;;8.10;99.90;;;;;;5023964;28;20042;-79
2021/12/01 09:56:48;;;;;;;1.55;1.05;;;8.10;99.90;;;;;;5024448;28;20060;-79
2021/12/01 09:59:14;;;;;;;1.38;0.65;;;8.10;99.90;;;;;;5026446;28;20554;-79
2021/12/01 10:01:40;;;;;;;5.57;1.15;;;8.10;99.90;;;;;;5031460;28;20038;-78
2021/12/01 10:04:05;;;;;;;1.00;1.00;;;8.00;99.90;;;;;;5030294;28;20136;-78
2021/12/01 10:06:32;;;;;;;0.63;0.63;;;8.00;99.90;;;;;;5026784;28;20129;-78
2021/12/01 10:09:04;;;;;;;4.50;1.02;;;8.00;99.90;;;;;;4990678;28;20050;-79
2021/12/01 10:11:33;;;;;;;2.95;1.30;;;8.10;99.90;;;;;;5020127;28;20064;-78
2021/12/01 10:14:09;;;;;;;2.05;1.23;;;8.20;99.90;;;;;;5024913;28;20426;-78
2021/12/01 10:16:38;;;;;;;1.50;1.20;;;8.30;99.90;;;;;;4997001;28;20044;-80
2021/12/01 10:19:09;;;;;;;0.60;0.60;;;8.40;99.90;;;;;;5040172;28;20033;-77
2021/12/01 10:21:37;;;;;;;7.88;1.42;;;8.40;99.90;;;;;;5028075;28;20052;-80
2021/12/01 10:24:11;;;;;;;2.92;1.67;;;8.40;99.90;;;;;;5025255;28;20037;-78
2021/12/01 10:26:46;;;;;;;1.25;1.02;;;8.40;99.90;;;;;;5037691;28;20434;-77
2021/12/01 10:29:23;;;;;;;4.82;0.95;;;8.30;99.90;;;;;;5030235;28;20044;-77
2021/12/01 10:31:51;;;;;;;5.18;1.70;;;8.50;99.90;;;;;;5037882;28;20149;-79
2021/12/01 10:34:29;;;;;;;3.97;1.00;;;8.40;99.90;;;;;;5010729;28;20041;-78
2021/12/01 10:37:26;;;;;;;3.97;1.67;;;8.40;99.90;;;;;;4989328;28;21365;-78
2021/12/01 10:40:20;;;;;;;2.85;1.00;;;8.40;99.90;;;;;;5026641;28;20073;-81
2021/12/01 10:43:06;;;;;;;1.92;0.95;;;8.30;99.90;;;;;;4987187;28;20055;-81
2021/12/01 10:45:40;;;;;;;0.95;0.75;;;8.20;99.90;;;;;;5013626;28;20037;-78
2021/12/01 10:48:18;;;;;;;5.13;1.70;;;8.10;99.90;;;;;;4998281;28;20104;-77
2021/12/01 10:50:43;;;;;;;3.20;1.08;;;8.20;99.90;;;;;;5016570;28;20069;-80
2021/12/01 10:53:13;;;;;;;1.10;1.05;;;8.20;99.90;;;;;;5010993;28;20150;-80
2021/12/01 10:55:42;;;;;;;6.57;1.70;;;8.20;99.90;;;;;;5011230;28;20045;-81
2021/12/01 10:58:08;;;;;;;7.35;2.13;;;8.30;99.90;;;;;;5010721;28;20124;-78
2021/12/01 11:00:43;;;;;;;5.88;1.48;;;8.40;99.90;;;;;;5023494;28;20123;-81
2021/12/01 11:03:10;;;;;;;2.15;1.00;;;8.40;99.90;;;;;;4988347;28;20131;-79
2021/12/01 11:05:57;;;;;;;6.63;1.80;;;8.50;99.90;;;;;;5001574;28;20088;-78
2021/12/01 11:08:32;;;;;;;2.60;1.00;;;8.50;99.90;;;;;;5006824;28;20065;-77
2021/12/01 11:11:10;;;;;;;1.35;0.85;;;8.50;99.90;;;;;;5013596;28;20049;-78
2021/12/01 11:13:41;;;;;;;3.97;1.52;;;8.50;99.90;;;;;;5002434;28;20479;-77
2021/12/01 11:16:10;;;;;;;1.00;0.82;;;8.50;99.90;;;;;;5003433;28;20068;-80
2021/12/01 11:18:38;;;;;;;0.80;0.73;;;8.50;99.90;;;;;;5003359;28;20052;-77
2021/12/01 11:21:23;;;;;;;2.00;1.05;;;8.50;99.90;;;;;;5004186;28;20045;-77
2021/12/01 11:23:55;;;;;;;8.40;1.27;;;8.60;99.90;;;;;;5009132;28;20394;-78
2021/12/01 11:26:26;;;;;;;1.33;1.10;;;8.60;99.90;;;;;;5012679;28;20064;-80
2021/12/01 11:28:57;;;;;;;4.22;1.38;;;8.60;99.90;;;;;;5011301;28;20061;-81
2021/12/01 11:31:29;;;;;;;4.10;1.00;;;8.60;99.90;;;;;;5027702;28;20049;-78
2021/12/01 11:33:58;;;;;;;3.42;1.50;;;8.70;99.90;;;;;;5003613;28;20522;-78
2021/12/01 11:36:30;;;;;;;4.28;1.52;;;8.70;99.90;;;;;;5024584;28;20061;-80
2021/12/01 11:38:58;;;;;;;4.97;1.27;;;8.60;99.90;;;;;;5024507;28;20132;-79
2021/12/01 11:41:28;;;;;;;2.50;1.65;;;8.40;99.90;;;;;;5028521;28;20045;-80
2021/12/01 11:43:55;;;;;;;5.05;1.60;;;8.20;99.90;;;;;;5013275;28;20045;-79
2021/12/01 11:46:20;;;;;;;0.98;0.90;;;8.10;99.90;;;;;;5033535;28;20052;-79
2021/12/01 11:48:55;;;;;;;4.65;1.80;;;7.90;99.90;;;;;;5029611;28;20123;-79
2021/12/01 11:51:30;;;;;;;1.40;1.15;;;8.00;99.90;;;;;;5028255;28;20892;-77
2021/12/01 11:54:04;;;;;;;10.57;2.22;;;7.90;99.90;;;;;;5028936;28;20045;-77
2021/12/01 11:56:33;;;;;;;4.20;1.60;;;7.90;99.90;;;;;;5017998;28;20034;-77
2021/12/01 11:58:59;;;;;;;3.55;1.40;;;7.70;99.90;;;;;;5021986;28;20089;-77
2021/12/01 12:01:25;;;;;;;8.77;2.42;;;7.70;99.90;;;;;;5025169;28;20076;-77
2021/12/01 12:03:54;;;;;;;;;;;7.70;99.90;;;;;;4993577;28;20045;-78
2021/12/01 12:06:26;;;;;;;4.93;1.45;;;7.60;99.90;;;;;;5023426;28;20274;-77
2021/12/01 12:08:56;;;;;;;3.83;1.67;;;7.70;99.90;;;;;;5009820;28;20074;-78
2021/12/01 12:11:53;;;;;;;3.65;1.58;;;7.80;99.90;;;;;;5018233;28;20095;-77
2021/12/01 12:14:36;;;;;;;2.88;1.60;;;7.80;99.90;;;;;;5025920;28;20049;-76
2021/12/01 12:17:18;;;;;;;3.97;1.45;;;7.80;99.90;;;;;;5040651;28;20444;-77
2021/12/01 12:19:52;;;;;;;6.03;1.73;;;7.90;99.90;;;;;;5031843;28;20041;-76
2021/12/01 12:22:28;;;;;;;5.05;1.65;;;7.90;99.90;;;;;;5031361;28;20137;-77
2021/12/01 12:24:57;;;;;;;1.77;1.30;;;7.90;99.90;;;;;;5036681;28;20041;-77
2021/12/01 12:27:43;;;;;;;3.58;1.50;;;7.90;99.90;;;;;;5038891;28;20290;-77
2021/12/01 12:30:36;;;;;;;4.68;1.65;;;7.90;99.90;;;;;;5003575;28;20053;-78
2021/12/01 12:33:18;;;;;;;1.80;1.27;;;7.90;99.90;;;;;;5021341;28;20084;-76
2021/12/01 12:35:47;;;;;;;4.70;1.58;;;7.80;99.90;;;;;;5014725;28;20503;-77
2021/12/01 12:38:14;;;;;;;3.55;1.42;;;7.80;99.90;;;;;;5030437;28;20057;-76
2021/12/01 12:40:41;;;;;;;3.90;1.55;;;8.00;99.90;;;;;;5023261;28;20052;-79
2021/12/01 12:43:22;;;;;;;3.08;1.45;;;7.90;99.90;;;;;;5021545;28;20047;-76
2021/12/01 12:46:08;;;;;;;5.97;1.40;;;7.70;99.90;;;;;;5015246;28;20033;-76
2021/12/01 12:48:48;;;;;;;6.00;2.10;;;7.40;99.90;;;;;;5020802;28;20111;-76
2021/12/01 12:51:26;;;;;;;2.95;1.58;;;7.50;99.90;;;;;;5018135;28;20438;-77
2021/12/01 12:54:04;;;;;;;4.80;1.40;;;7.30;99.90;;;;;;5006876;28;20494;-75
2021/12/01 12:56:36;;;;;;;1.75;0.90;;;7.60;99.90;;;;;;5015436;28;20048;-76
2021/12/01 12:59:22;;;;;;;7.43;1.73;;;7.30;99.90;;;;;;5022018;28;20041;-75
2021/12/01 13:01:50;;;;;;;3.45;1.70;;;7.50;99.90;;;;;;5023385;28;20045;-78
2021/12/01 13:04:44;;;;;;;4.68;1.35;;;7.30;99.90;;;;;;5012495;28;20049;-76
2021/12/01 13:07:28;;;;;;;7.68;1.70;;;7.30;99.90;;;;;;5021415;28;20558;-77
2021/12/01 13:10:14;;;;;;;4.13;1.50;;;7.30;99.90;;;;;;5027159;28;20051;-77
2021/12/01 13:12:51;;;;;;;3.58;1.80;;;7.20;99.90;;;;;;5012065;28;20505;-77
2021/12/01 13:15:29;;;;;;;2.45;1.13;;;7.60;99.90;;;;;;5026688;28;20052;-77